Alaska Titan — WDE4789 — position and weather

sailwx.info

Track history (hours):
 
Tides and Currents Weather Stations Pressure Air Temp Water Temp Dewpoint Dewpoint Depression Visibility Wind Speed Wind Dir Waves Ship Positions

Alaska Titan

Owner: WESTERN TOWBOAT CO, Seattle, WA. More information available from US FCC via Universal Licensing System and Coast Guard Vessel Documentation Center.

Last reported at 2016-Dec-01 02:29 UTC. Time now 2016-Dec-04 03:57 UTC.
Position N 47°39' W 122°22'.

Length 40 m; draft 6 m.

Type: Tow > 200 m length. MMSI: 367357890.

Date/timePositionNaut miles runAvg speedWind from/ knotsBaromVisibWave heightAir tempDewpointWater temp
2016-Dec-01 02:29N 47°39' W 122°22'3 3.1
2016-Dec-01 01:33N 47°40' W 122°26'6 5.5
2016-Dec-01 00:33N 47°36' W 122°22'5 5.2
2016-Nov-30 23:33N 47°39' W 122°28'10 9.8
2016-Nov-30 22:33N 47°49' W 122°27'9 8.7
2016-Nov-30 21:33N 47°57' W 122°34'26 8.4
2016-Nov-30 18:29N 48°21' W 122°46'9 9.5
2016-Nov-30 17:33N 48°30' W 122°44'10 9.9
2016-Nov-30 16:33N 48°40' W 122°43'12 9.1
2016-Nov-30 15:14N 48°48' W 122°56'7 9.5
2016-Nov-30 14:29N 48°52' W 123°05'9 9.2
2016-Nov-30 13:31N 48°58' W 123°15'8 8.2
2016-Nov-30 12:33N 49°03' W 123°24'26 7.5
2016-Nov-30 09:04N 49°21' W 123°54'4 8.0
2016-Nov-30 08:33N 49°23' W 123°59'17 7.9
2016-Nov-30 06:21N 49°33' W 124°21'7 8.4
2016-Nov-30 05:30N 49°37' W 124°30'8 8.6
2016-Nov-30 04:32N 49°42' W 124°40'7 7.2
2016-Nov-30 03:33N 49°46' W 124°49'89 7.3
2016-Nov-29 15:26N 50°36' W 126°44'8 8.3
2016-Nov-29 14:29N 50°41' W 126°54'9 9.2
2016-Nov-29 13:28N 50°45' W 127°07'8 8.5
2016-Nov-29 12:33N 50°50' W 127°16'9 8.9
2016-Nov-29 11:33N 50°56' W 127°27'9 8.8
2016-Nov-29 10:33N 51°02' W 127°38'8 8.5
2016-Nov-29 09:33N 51°08' W 127°48'21 8.7
2016-Nov-29 07:06N 51°29' W 127°51'  
2016-Nov-26 02:00N 58°42' W 138°00'33 6.6 160 / 30999.0 5.4 6.5
2016-Nov-25 21:00N 59°00' W 138°54'24 7.9 120 / 401000.0 5.4 12.5
2016-Nov-25 18:00N 59°18' W 139°24'33 8.2 090 / 251001.0 5.4 2.7
2016-Nov-25 14:00N 59°30' W 140°24'2713.7 080 / 201003.1 5.4 2.2
2016-Nov-25 12:00N 59°30' W 141°18'43 7.1 080 / 231004.010.8 5.5
2016-Nov-25 06:00N 59°30' W 142°42'61 8.7 270 / 121004.010.8 5.5
2016-Nov-24 23:00N 59°36' W 144°42'5110.2 310 / 151003.5 5.4 6.1
2016-Nov-24 18:00N 60°00' W 146°12'49 1.1 120 / 121003.010.8 5.0
2016-Nov-22 23:00N 59°36' W 144°48'5210.4 110 / 20997.5 5.4 8.0
2016-Nov-22 18:00N 59°30' W 143°06'55 9.1 100 / 18998.5 5.4 7.2
2016-Nov-22 12:00N 59°30' W 141°18'1212.2 110 / 30998.0 5.4 10.0
2016-Nov-22 11:00N 59°30' W 140°54'44 8.9 110 / 18998.0 5.4 10.5
2016-Nov-22 06:00N 59°18' W 139°30'56 9.4 050 / 25999.010.8 6.1
2016-Nov-22 00:00N 58°42' W 138°06'9 8.7 340 / 121000.010.8 4.7
2016-Nov-21 23:00N 58°36' W 137°54'42 8.4 320 / 101000.010.8 5.0
2016-Nov-21 18:00N 58°12' W 136°48'   070 / 301004.510.8 3.4
Track history (hours):
 
Tides and Currents Weather Stations Pressure Air Temp Water Temp Dewpoint Dewpoint Depression Visibility Wind Speed Wind Dir Waves Ship Positions

Alaska Titan

Owner: WESTERN TOWBOAT CO, Seattle, WA. More information available from US FCC via Universal Licensing System and Coast Guard Vessel Documentation Center.

Last reported at 2016-Dec-01 02:29 UTC. Time now 2016-Dec-04 03:57 UTC.
Position N 47°39' W 122°22'.

Length 40 m; draft 6 m.

Type: Tow > 200 m length. MMSI: 367357890.

Date/timePositionNaut miles runAvg speedWind from/ knotsBaromVisibWave heightAir tempDewpointWater temp
2016-Dec-01 02:29N 47°39' W 122°22'3 3.1
2016-Dec-01 01:33N 47°40' W 122°26'6 5.5
2016-Dec-01 00:33N 47°36' W 122°22'5 5.2
2016-Nov-30 23:33N 47°39' W 122°28'10 9.8
2016-Nov-30 22:33N 47°49' W 122°27'9 8.7
2016-Nov-30 21:33N 47°57' W 122°34'26 8.4
2016-Nov-30 18:29N 48°21' W 122°46'9 9.5
2016-Nov-30 17:33N 48°30' W 122°44'10 9.9
2016-Nov-30 16:33N 48°40' W 122°43'12 9.1
2016-Nov-30 15:14N 48°48' W 122°56'7 9.5
2016-Nov-30 14:29N 48°52' W 123°05'9 9.2
2016-Nov-30 13:31N 48°58' W 123°15'8 8.2
2016-Nov-30 12:33N 49°03' W 123°24'26 7.5
2016-Nov-30 09:04N 49°21' W 123°54'4 8.0
2016-Nov-30 08:33N 49°23' W 123°59'17 7.9
2016-Nov-30 06:21N 49°33' W 124°21'7 8.4
2016-Nov-30 05:30N 49°37' W 124°30'8 8.6
2016-Nov-30 04:32N 49°42' W 124°40'7 7.2
2016-Nov-30 03:33N 49°46' W 124°49'89 7.3
2016-Nov-29 15:26N 50°36' W 126°44'8 8.3
2016-Nov-29 14:29N 50°41' W 126°54'9 9.2
2016-Nov-29 13:28N 50°45' W 127°07'8 8.5
2016-Nov-29 12:33N 50°50' W 127°16'9 8.9
2016-Nov-29 11:33N 50°56' W 127°27'9 8.8
2016-Nov-29 10:33N 51°02' W 127°38'8 8.5
2016-Nov-29 09:33N 51°08' W 127°48'21 8.7
2016-Nov-29 07:06N 51°29' W 127°51'  
2016-Nov-26 02:00N 58°42' W 138°00'33 6.6 160 / 30999.0 5.4 6.5
2016-Nov-25 21:00N 59°00' W 138°54'24 7.9 120 / 401000.0 5.4 12.5
2016-Nov-25 18:00N 59°18' W 139°24'33 8.2 090 / 251001.0 5.4 2.7
2016-Nov-25 14:00N 59°30' W 140°24'2713.7 080 / 201003.1 5.4 2.2
2016-Nov-25 12:00N 59°30' W 141°18'43 7.1 080 / 231004.010.8 5.5
2016-Nov-25 06:00N 59°30' W 142°42'61 8.7 270 / 121004.010.8 5.5
2016-Nov-24 23:00N 59°36' W 144°42'5110.2 310 / 151003.5 5.4 6.1
2016-Nov-24 18:00N 60°00' W 146°12'49 1.1 120 / 121003.010.8 5.0
2016-Nov-22 23:00N 59°36' W 144°48'5210.4 110 / 20997.5 5.4 8.0
2016-Nov-22 18:00N 59°30' W 143°06'55 9.1 100 / 18998.5 5.4 7.2
2016-Nov-22 12:00N 59°30' W 141°18'1212.2 110 / 30998.0 5.4 10.0
2016-Nov-22 11:00N 59°30' W 140°54'44 8.9 110 / 18998.0 5.4 10.5
2016-Nov-22 06:00N 59°18' W 139°30'56 9.4 050 / 25999.010.8 6.1
2016-Nov-22 00:00N 58°42' W 138°06'9 8.7 340 / 121000.010.8 4.7
2016-Nov-21 23:00N 58°36' W 137°54'42 8.4 320 / 101000.010.8 5.0
2016-Nov-21 18:00N 58°12' W 136°48'   070 / 301004.510.8 3.4

Dump ship's entire track history